createdAt,value
2023-04-09T00:02:36.411Z,66.88
2023-04-09T00:05:17.441Z,66.94
2023-04-09T00:08:09.702Z,66.81
2023-04-09T00:10:50.253Z,66.81
2023-04-09T00:13:42.276Z,66.81
2023-04-09T00:16:34.421Z,66.83
2023-04-09T00:19:14.717Z,66.73
2023-04-09T00:22:06.776Z,66.90
2023-04-09T00:24:58.778Z,66.95
2023-04-09T00:27:33.371Z,66.88
2023-04-09T00:30:25.846Z,66.82
2023-04-09T00:33:17.774Z,66.99
2023-04-09T00:36:10.181Z,66.98
2023-04-09T00:38:48.593Z,66.93
2023-04-09T00:41:29.422Z,67.14
2023-04-09T00:44:11.453Z,66.90
2023-04-09T00:46:55.028Z,66.95
2023-04-09T00:49:47.114Z,67.11
2023-04-09T00:52:39.155Z,67.26
2023-04-09T00:55:23.623Z,67.22
2023-04-09T00:58:16.622Z,67.21
2023-04-09T01:01:08.672Z,67.14
2023-04-09T01:04:01.003Z,67.13
2023-04-09T01:06:56.913Z,67.17
2023-04-09T01:09:55.468Z,67.28
2023-04-09T01:13:02.671Z,67.18
2023-04-09T01:15:58.223Z,67.25
2023-04-09T01:18:54.459Z,67.37
2023-04-09T01:21:47.230Z,67.34
2023-04-09T01:24:53.803Z,67.45
2023-04-09T01:27:45.891Z,67.40
2023-04-09T01:30:38.330Z,67.37
2023-04-09T01:33:32.729Z,67.39
2023-04-09T01:36:25.814Z,67.37
2023-04-09T01:39:18.315Z,67.48
2023-04-09T01:42:12.745Z,67.53
2023-04-09T01:45:06.695Z,67.56
2023-04-09T01:47:59.044Z,67.39
2023-04-09T01:50:52.107Z,67.44
2023-04-09T01:53:44.416Z,67.36
2023-04-09T01:56:44.903Z,67.36
2023-04-09T01:59:36.872Z,67.62
2023-04-09T02:02:38.156Z,67.44
2023-04-09T02:05:37.090Z,67.71
2023-04-09T02:08:26.232Z,67.65
2023-04-09T02:11:19.641Z,67.63
2023-04-09T02:14:13.099Z,67.62
2023-04-09T02:17:05.950Z,67.76
2023-04-09T02:19:58.180Z,67.74
2023-04-09T02:22:50.372Z,67.73
2023-04-09T02:25:42.432Z,67.83
2023-04-09T02:28:34.421Z,68.00
2023-04-09T02:31:26.529Z,67.96
2023-04-09T02:34:18.493Z,67.91
2023-04-09T02:37:10.617Z,68.07
2023-04-09T02:39:45.623Z,67.82
2023-04-09T02:42:26.752Z,67.97
2023-04-09T02:45:18.863Z,68.09
2023-04-09T02:48:10.994Z,68.23
2023-04-09T02:50:46.150Z,68.14
2023-04-09T02:53:40.681Z,68.07
2023-04-09T02:56:17.835Z,68.12
2023-04-09T02:59:09.817Z,67.95
2023-04-09T03:02:01.823Z,68.07
2023-04-09T03:04:54.090Z,68.10
2023-04-09T03:07:29.070Z,68.13
2023-04-09T03:10:04.178Z,68.33
2023-04-09T03:12:56.200Z,68.47
2023-04-09T03:15:30.877Z,68.21
2023-04-09T03:18:05.506Z,68.22
2023-04-09T03:20:41.990Z,68.13
2023-04-09T03:23:16.782Z,68.17
2023-04-09T03:26:08.891Z,68.30
2023-04-09T03:29:01.125Z,68.30
2023-04-09T03:31:53.045Z,68.26
2023-04-09T03:34:45.011Z,68.24
2023-04-09T03:37:37.071Z,68.39
2023-04-09T03:40:13.702Z,68.24
2023-04-09T03:42:48.242Z,68.26
2023-04-09T03:45:40.230Z,68.31
2023-04-09T03:48:32.209Z,68.12
2023-04-09T03:51:24.184Z,68.29
2023-04-09T03:54:16.374Z,68.43
2023-04-09T03:57:08.458Z,68.77
2023-04-09T04:00:00.493Z,68.72
2023-04-09T04:02:52.778Z,68.89
2023-04-09T04:05:44.985Z,69.11
2023-04-09T04:08:37.044Z,69.04
2023-04-09T04:11:29.037Z,69.06
2023-04-09T04:14:21.161Z,68.89
2023-04-09T04:17:13.293Z,68.98
2023-04-09T04:20:05.772Z,68.88
2023-04-09T04:22:57.683Z,68.93
2023-04-09T04:25:49.664Z,68.87
2023-04-09T04:28:31.413Z,68.82
2023-04-09T04:31:23.417Z,68.92
2023-04-09T04:34:15.406Z,68.85
2023-04-09T04:37:07.394Z,68.96
2023-04-09T04:39:59.932Z,68.68
2023-04-09T04:42:34.562Z,68.78
2023-04-09T04:45:26.547Z,68.93
2023-04-09T04:48:18.508Z,69.08
2023-04-09T04:51:10.518Z,69.16
2023-04-09T04:54:02.592Z,69.06
2023-04-09T04:56:54.587Z,68.88
2023-04-09T04:59:46.665Z,68.77
2023-04-09T05:02:28.945Z,68.66
2023-04-09T05:05:21.055Z,68.75
2023-04-09T05:08:13.195Z,68.94
2023-04-09T05:11:05.360Z,68.86
2023-04-09T05:13:57.360Z,68.77
2023-04-09T05:16:49.500Z,68.75
2023-04-09T05:19:41.593Z,68.63
2023-04-09T05:22:33.606Z,68.83
2023-04-09T05:25:25.704Z,68.85
2023-04-09T05:28:08.135Z,69.02
2023-04-09T05:31:00.355Z,69.00
2023-04-09T05:33:52.877Z,69.16
2023-04-09T05:36:44.951Z,69.04
2023-04-09T05:39:36.912Z,68.90
2023-04-09T05:42:29.019Z,69.07
2023-04-09T05:45:21.104Z,69.02
2023-04-09T05:48:13.123Z,69.18
2023-04-09T05:50:56.162Z,69.03
2023-04-09T05:53:48.191Z,68.97
2023-04-09T05:56:40.296Z,68.97
2023-04-09T05:59:32.328Z,68.98
2023-04-09T06:02:24.916Z,69.20
2023-04-09T06:05:17.303Z,69.17
2023-04-09T06:08:09.292Z,69.01
2023-04-09T06:10:56.369Z,69.05
2023-04-09T06:13:38.887Z,68.98
2023-04-09T06:16:30.852Z,68.89
2023-04-09T06:19:12.411Z,68.98
2023-04-09T06:22:04.430Z,68.97
2023-04-09T06:24:56.442Z,69.16
2023-04-09T06:27:39.696Z,68.99
2023-04-09T06:30:28.151Z,68.92
2023-04-09T06:33:20.342Z,68.84
2023-04-09T06:36:12.406Z,68.99
2023-04-09T06:39:04.498Z,69.04
2023-04-09T06:41:56.572Z,68.98
2023-04-09T06:44:48.655Z,68.74
2023-04-09T06:47:41.014Z,68.82
2023-04-09T06:50:33.131Z,68.84
2023-04-09T06:53:10.339Z,68.63
2023-04-09T06:56:02.570Z,68.60
2023-04-09T06:58:54.368Z,68.68
2023-04-09T07:01:47.706Z,68.76
2023-04-09T07:04:22.733Z,68.55
2023-04-09T07:07:14.970Z,68.50
2023-04-09T07:10:08.323Z,68.51
2023-04-09T07:13:00.532Z,68.52
2023-04-09T07:15:52.609Z,68.43
2023-04-09T07:18:44.605Z,68.31
2023-04-09T07:21:26.534Z,68.40
2023-04-09T07:24:03.914Z,68.24
2023-04-09T07:26:56.322Z,67.99
2023-04-09T07:29:48.648Z,68.02
2023-04-09T07:32:40.713Z,67.97
2023-04-09T07:35:34.701Z,67.93
2023-04-09T07:38:28.822Z,67.93
2023-04-09T07:41:20.871Z,67.88
2023-04-09T07:44:13.684Z,67.44
2023-04-09T07:47:07.524Z,67.44
2023-04-09T07:49:59.663Z,66.79
2023-04-09T07:52:51.753Z,66.84
2023-04-09T07:55:43.898Z,66.83
2023-04-09T07:58:19.198Z,66.85
2023-04-09T08:01:11.222Z,66.78
2023-04-09T08:04:03.934Z,66.62
2023-04-09T08:06:56.284Z,66.74
2023-04-09T08:09:48.829Z,66.61
2023-04-09T08:12:40.809Z,66.82
2023-04-09T08:15:32.893Z,66.48
2023-04-09T08:18:24.860Z,66.45
2023-04-09T08:20:59.765Z,66.30
2023-04-09T08:23:51.733Z,66.13
2023-04-09T08:26:44.767Z,66.04
2023-04-09T08:29:36.886Z,65.93
2023-04-09T08:32:28.885Z,66.10
2023-04-09T08:35:06.660Z,66.30
2023-04-09T08:38:00.149Z,66.11
2023-04-09T08:40:52.285Z,66.25
2023-04-09T08:43:57.021Z,66.37
2023-04-09T08:46:51.159Z,66.19
2023-04-09T08:49:43.352Z,66.12
2023-04-09T08:52:37.812Z,65.67
2023-04-09T08:55:31.181Z,65.76
2023-04-09T08:58:09.498Z,65.93
2023-04-09T09:01:02.404Z,65.86
2023-04-09T09:04:00.854Z,65.68
2023-04-09T09:06:55.438Z,65.50
2023-04-09T09:09:57.010Z,65.26
2023-04-09T09:12:49.202Z,64.89
2023-04-09T09:15:41.229Z,64.77
2023-04-09T09:18:42.597Z,64.86
2023-04-09T09:21:36.318Z,64.84
2023-04-09T09:24:20.276Z,64.65
2023-04-09T09:26:58.849Z,64.27
2023-04-09T09:29:44.904Z,64.47
2023-04-09T09:32:37.721Z,64.50
2023-04-09T09:35:18.620Z,64.76
2023-04-09T09:38:05.912Z,64.67
2023-04-09T09:40:57.891Z,64.36
2023-04-09T09:43:44.038Z,64.40
2023-04-09T09:46:38.645Z,64.15
2023-04-09T09:49:30.731Z,64.05
2023-04-09T09:52:14.303Z,64.06
2023-04-09T09:55:09.197Z,64.08
2023-04-09T09:58:03.631Z,63.87
2023-04-09T10:00:57.499Z,63.82
2023-04-09T10:03:50.974Z,63.90
2023-04-09T10:06:46.059Z,63.90
2023-04-09T10:09:41.435Z,63.42
2023-04-09T10:12:31.058Z,63.24
2023-04-09T10:15:13.880Z,63.18
2023-04-09T10:18:06.028Z,63.33
2023-04-09T10:21:03.141Z,63.08
2023-04-09T10:23:43.119Z,62.78
2023-04-09T10:26:37.357Z,62.66
2023-04-09T10:29:31.459Z,62.66
2023-04-09T10:32:26.643Z,62.46
2023-04-09T10:35:28.930Z,62.22
2023-04-09T10:38:36.324Z,61.93
2023-04-09T10:41:32.042Z,61.69
2023-04-09T10:44:25.390Z,61.99
2023-04-09T10:47:34.821Z,62.11
2023-04-09T10:50:30.756Z,61.92
2023-04-09T10:53:27.682Z,61.35
2023-04-09T10:56:02.643Z,61.38
2023-04-09T10:58:54.614Z,61.07
2023-04-09T11:01:36.928Z,60.66
2023-04-09T11:04:38.050Z,60.67
2023-04-09T11:07:32.133Z,61.02
2023-04-09T11:10:24.248Z,61.23
2023-04-09T11:13:17.613Z,61.33
2023-04-09T11:15:55.457Z,61.12
2023-04-09T11:18:31.490Z,60.41
2023-04-09T11:21:27.735Z,60.10
2023-04-09T11:24:21.312Z,60.87
2023-04-09T11:27:13.594Z,61.72
2023-04-09T11:30:06.435Z,59.74
2023-04-09T11:32:58.563Z,57.98
2023-04-09T11:35:37.431Z,57.12
2023-04-09T11:38:14.979Z,56.91
2023-04-09T11:41:07.150Z,57.48
2023-04-09T11:43:59.154Z,56.55
2023-04-09T11:46:51.995Z,55.40
2023-04-09T11:49:45.117Z,54.73
2023-04-09T11:52:37.859Z,54.47
2023-04-09T11:55:31.879Z,53.17
2023-04-09T11:58:26.475Z,53.14
2023-04-09T12:01:18.514Z,52.55
2023-04-09T12:04:11.227Z,52.20
2023-04-09T12:07:03.501Z,51.85
2023-04-09T12:09:55.470Z,50.72
2023-04-09T12:12:49.033Z,50.57
2023-04-09T12:15:43.541Z,50.04
2023-04-09T12:18:38.490Z,50.06
2023-04-09T12:21:47.896Z,50.21
2023-04-09T12:24:40.003Z,49.71
2023-04-09T12:27:33.955Z,49.22
2023-04-09T12:30:26.286Z,48.72
2023-04-09T12:33:18.316Z,48.66
2023-04-09T12:36:10.590Z,48.09
2023-04-09T12:39:02.675Z,47.25
2023-04-09T12:41:39.639Z,47.10
2023-04-09T12:44:33.102Z,47.48
2023-04-09T12:47:25.153Z,47.95
2023-04-09T12:50:10.496Z,47.98
2023-04-09T12:53:02.421Z,48.01
2023-04-09T12:55:54.454Z,47.82
2023-04-09T12:58:46.390Z,47.46
2023-04-09T13:01:39.230Z,47.30
2023-04-09T13:04:28.811Z,46.82
2023-04-09T13:07:21.445Z,46.23
2023-04-09T13:10:13.579Z,46.67
2023-04-09T13:13:06.154Z,46.48
2023-04-09T13:15:58.159Z,46.66
2023-04-09T13:18:41.082Z,46.46
2023-04-09T13:21:33.111Z,46.57
2023-04-09T13:24:25.176Z,46.17
2023-04-09T13:27:09.790Z,45.68
2023-04-09T13:30:01.928Z,45.36
2023-04-09T13:32:53.931Z,45.48
2023-04-09T13:35:46.780Z,45.73
2023-04-09T13:38:39.385Z,45.17
2023-04-09T13:41:31.996Z,44.99
2023-04-09T13:44:24.110Z,45.42
2023-04-09T13:47:17.860Z,47.42
2023-04-09T13:50:01.485Z,48.78
2023-04-09T13:52:53.550Z,50.06
2023-04-09T13:55:41.561Z,51.59
2023-04-09T13:58:23.715Z,52.46
2023-04-09T14:00:58.239Z,53.44
2023-04-09T14:03:52.584Z,54.42
2023-04-09T14:06:45.156Z,55.33
2023-04-09T14:09:37.197Z,55.99
2023-04-09T14:12:29.183Z,56.29
2023-04-09T14:15:22.100Z,56.50
2023-04-09T14:18:14.127Z,56.64
2023-04-09T14:21:08.723Z,56.81
2023-04-09T14:24:02.192Z,56.75
2023-04-09T14:26:54.187Z,56.64
2023-04-09T14:29:46.213Z,56.94
2023-04-09T14:32:38.475Z,57.40
2023-04-09T14:35:30.608Z,57.65
2023-04-09T14:38:04.380Z,57.86
2023-04-09T14:40:56.442Z,57.88
2023-04-09T14:43:48.371Z,57.79
2023-04-09T14:46:40.465Z,58.16
2023-04-09T14:49:32.571Z,58.20
2023-04-09T14:52:24.591Z,57.97
2023-04-09T14:55:16.731Z,58.12
2023-04-09T14:58:08.697Z,58.43
2023-04-09T15:01:00.697Z,58.55
2023-04-09T15:03:52.832Z,58.17
2023-04-09T15:06:45.366Z,57.66
2023-04-09T15:09:37.366Z,57.90
2023-04-09T15:12:29.824Z,57.75
2023-04-09T15:15:21.838Z,57.09
2023-04-09T15:18:05.920Z,57.15
2023-04-09T15:20:58.196Z,57.46
2023-04-09T15:23:51.055Z,57.51
2023-04-09T15:26:43.205Z,57.39
2023-04-09T15:29:36.261Z,57.05
2023-04-09T15:32:29.587Z,56.86
2023-04-09T15:35:25.119Z,56.98
2023-04-09T15:38:17.583Z,56.61
2023-04-09T15:41:10.494Z,56.68
2023-04-09T15:44:02.549Z,56.52
2023-04-09T15:46:38.452Z,56.47
2023-04-09T15:49:30.594Z,56.65
2023-04-09T15:52:02.629Z,56.79
2023-04-09T15:54:55.049Z,56.96
2023-04-09T15:57:47.160Z,57.00
2023-04-09T16:00:39.174Z,57.01
2023-04-09T16:03:20.551Z,57.21
2023-04-09T16:06:13.058Z,57.48
2023-04-09T16:09:05.246Z,57.50
2023-04-09T16:11:57.279Z,57.62
2023-04-09T16:14:49.293Z,57.57
2023-04-09T16:17:41.394Z,57.72
2023-04-09T16:20:33.448Z,57.70
2023-04-09T16:23:27.037Z,57.81
2023-04-09T16:26:19.034Z,57.98
2023-04-09T16:29:11.194Z,58.07
2023-04-09T16:32:03.994Z,58.28
2023-04-09T16:35:00.433Z,58.53
2023-04-09T16:37:52.999Z,58.54
2023-04-09T16:40:45.962Z,58.85
2023-04-09T16:43:38.342Z,59.22
2023-04-09T16:46:30.933Z,59.42
2023-04-09T16:49:23.339Z,59.37
2023-04-09T16:52:15.618Z,59.55
2023-04-09T16:55:08.987Z,59.71
2023-04-09T16:58:01.647Z,59.72
2023-04-09T17:00:53.629Z,59.83
2023-04-09T17:03:46.106Z,59.97
2023-04-09T17:06:35.776Z,60.06
2023-04-09T17:09:27.836Z,60.15
2023-04-09T17:12:04.870Z,60.23
2023-04-09T17:14:57.920Z,60.22
2023-04-09T17:17:53.092Z,60.31
2023-04-09T17:20:45.083Z,60.32
2023-04-09T17:23:37.875Z,60.42
2023-04-09T17:26:30.394Z,60.41
2023-04-09T17:29:22.611Z,60.48
2023-04-09T17:32:14.675Z,60.50
2023-04-09T17:35:08.071Z,60.58
2023-04-09T17:38:00.232Z,60.65
2023-04-09T17:40:54.067Z,60.68
2023-04-09T17:43:46.109Z,60.80
2023-04-09T17:46:39.169Z,60.95
2023-04-09T17:49:11.892Z,61.12
2023-04-09T17:51:46.659Z,61.31
2023-04-09T17:54:39.141Z,61.40
2023-04-09T17:57:13.887Z,61.42
2023-04-09T17:59:57.318Z,61.58
2023-04-09T18:02:52.339Z,61.63
2023-04-09T18:05:45.064Z,61.83
2023-04-09T18:08:37.479Z,61.86
2023-04-09T18:11:15.527Z,62.05
2023-04-09T18:14:08.099Z,62.18
2023-04-09T18:17:08.441Z,62.30
2023-04-09T18:19:45.711Z,62.38
2023-04-09T18:22:22.745Z,62.45
2023-04-09T18:25:15.006Z,62.58
2023-04-09T18:27:52.063Z,62.60
2023-04-09T18:30:44.523Z,62.71
2023-04-09T18:33:37.054Z,62.84
2023-04-09T18:36:29.240Z,62.93
2023-04-09T18:39:07.059Z,63.03
2023-04-09T18:41:59.582Z,63.15
2023-04-09T18:44:51.598Z,63.18
2023-04-09T18:47:44.037Z,63.26
2023-04-09T18:50:21.521Z,63.25
2023-04-09T18:53:05.571Z,63.43
2023-04-09T18:55:57.577Z,63.57
2023-04-09T18:58:51.836Z,63.77
2023-04-09T19:01:44.207Z,63.79
2023-04-09T19:04:39.835Z,63.92
2023-04-09T19:07:33.616Z,64.02
2023-04-09T19:10:22.220Z,64.23
2023-04-09T19:12:59.387Z,64.33
2023-04-09T19:15:51.382Z,64.44
2023-04-09T19:18:26.630Z,64.62
2023-04-09T19:21:18.653Z,64.79
2023-04-09T19:24:10.971Z,64.86
2023-04-09T19:27:09.115Z,64.97
2023-04-09T19:30:01.159Z,64.98
2023-04-09T19:32:38.689Z,65.10
2023-04-09T19:35:32.968Z,65.20
2023-04-09T19:38:25.394Z,65.28
2023-04-09T19:41:17.574Z,65.31
2023-04-09T19:44:07.403Z,65.35
2023-04-09T19:46:59.486Z,65.35
2023-04-09T19:49:41.574Z,65.46
2023-04-09T19:52:33.781Z,65.45
2023-04-09T19:55:26.316Z,65.65
2023-04-09T19:58:18.447Z,65.66
2023-04-09T20:01:10.712Z,65.58
2023-04-09T20:04:03.041Z,65.57
2023-04-09T20:06:55.735Z,65.53
2023-04-09T20:09:33.059Z,65.48
2023-04-09T20:12:08.766Z,65.56
2023-04-09T20:15:02.812Z,65.59
2023-04-09T20:17:54.793Z,65.54
2023-04-09T20:20:46.904Z,65.57
2023-04-09T20:23:39.003Z,65.57
2023-04-09T20:26:31.136Z,65.64
2023-04-09T20:29:03.109Z,65.51
2023-04-09T20:31:55.565Z,65.68
2023-04-09T20:34:47.789Z,65.59
2023-04-09T20:37:24.876Z,65.65
2023-04-09T20:40:03.242Z,65.73
2023-04-09T20:42:55.546Z,65.68
2023-04-09T20:45:47.695Z,65.73
2023-04-09T20:48:39.834Z,65.73
2023-04-09T20:51:23.359Z,65.67
2023-04-09T20:54:17.935Z,65.77
2023-04-09T20:57:10.622Z,65.76
2023-04-09T21:00:04.554Z,65.79
2023-04-09T21:02:56.791Z,65.79
2023-04-09T21:05:48.903Z,65.82
2023-04-09T21:08:29.682Z,65.94
2023-04-09T21:11:21.635Z,65.95
2023-04-09T21:14:14.631Z,65.83
2023-04-09T21:17:06.731Z,65.84
2023-04-09T21:19:58.791Z,65.87
2023-04-09T21:22:50.815Z,65.97
2023-04-09T21:25:43.051Z,65.99
2023-04-09T21:28:26.279Z,65.93
2023-04-09T21:31:18.378Z,65.90
2023-04-09T21:34:10.438Z,66.00
2023-04-09T21:37:04.581Z,66.02
2023-04-09T21:39:56.509Z,65.98
2023-04-09T21:42:48.496Z,65.90
2023-04-09T21:45:21.097Z,65.91
2023-04-09T21:48:13.769Z,65.99
2023-04-09T21:51:09.729Z,66.12
2023-04-09T21:53:52.071Z,66.05
2023-04-09T21:56:44.047Z,66.06
2023-04-09T21:59:37.084Z,66.16
2023-04-09T22:02:29.740Z,66.14
2023-04-09T22:05:21.815Z,66.09
2023-04-09T22:08:13.837Z,66.13
2023-04-09T22:11:06.126Z,66.15
2023-04-09T22:13:58.237Z,66.23
2023-04-09T22:16:40.925Z,66.16
2023-04-09T22:19:33.895Z,66.29
2023-04-09T22:22:25.903Z,66.34
2023-04-09T22:25:17.883Z,66.34
2023-04-09T22:28:09.861Z,66.39
2023-04-09T22:31:02.469Z,66.35
2023-04-09T22:33:54.474Z,66.41
2023-04-09T22:36:46.466Z,66.42
2023-04-09T22:39:38.498Z,66.36
2023-04-09T22:42:30.565Z,66.42
2023-04-09T22:45:22.638Z,66.40
2023-04-09T22:48:14.909Z,66.50
2023-04-09T22:51:07.853Z,66.56
2023-04-09T22:53:59.885Z,66.57
2023-04-09T22:56:41.989Z,66.44
2023-04-09T22:59:39.714Z,66.64
2023-04-09T23:02:33.064Z,66.57
2023-04-09T23:05:25.441Z,66.64
2023-04-09T23:08:17.469Z,66.60
2023-04-09T23:11:10.359Z,66.72
2023-04-09T23:14:02.724Z,66.82
2023-04-09T23:16:54.737Z,66.90
2023-04-09T23:19:46.716Z,66.98
2023-04-09T23:22:28.700Z,66.98
2023-04-09T23:25:21.794Z,67.07
2023-04-09T23:27:56.348Z,67.00
2023-04-09T23:30:48.299Z,67.22
2023-04-09T23:33:40.379Z,67.12
2023-04-09T23:36:32.674Z,67.13
2023-04-09T23:39:24.696Z,67.14
2023-04-09T23:42:16.727Z,67.12
2023-04-09T23:45:10.381Z,67.06
2023-04-09T23:48:03.273Z,67.10
2023-04-09T23:50:55.349Z,67.05
2023-04-09T23:53:47.710Z,67.15
2023-04-09T23:56:23.117Z,67.16
2023-04-09T23:59:00.614Z,66.98
